createdAt,value
2022-11-20T00:12:57.424Z,7.54
2022-11-20T00:18:51.954Z,7.38
2022-11-20T00:32:21.228Z,7.52
2022-11-20T00:39:01.610Z,7.57
2022-11-20T00:44:48.421Z,7.68
2022-11-20T00:50:35.394Z,7.88
2022-11-20T00:56:22.560Z,7.76
2022-11-20T01:02:09.386Z,7.76
2022-11-20T01:07:56.089Z,7.89
2022-11-20T01:13:44.379Z,7.75
2022-11-20T01:19:32.005Z,7.87
2022-11-20T01:25:21.041Z,7.94
2022-11-20T01:31:29.140Z,8.06
2022-11-20T01:37:18.503Z,8.20
2022-11-20T01:43:21.765Z,8.25
2022-11-20T01:49:20.822Z,8.11
2022-11-20T01:55:16.422Z,8.01
2022-11-20T02:01:04.818Z,8.08
2022-11-20T02:07:00.279Z,8.21
2022-11-20T02:13:05.752Z,8.15
2022-11-20T02:18:55.946Z,8.02
2022-11-20T02:24:44.964Z,8.12
2022-11-20T02:30:31.805Z,8.19
2022-11-20T02:36:18.526Z,8.30
2022-11-20T02:42:05.228Z,8.15
2022-11-20T02:47:54.667Z,8.34
2022-11-20T02:53:41.414Z,8.32
2022-11-20T02:59:28.045Z,8.34
2022-11-20T03:05:14.802Z,8.24
2022-11-20T03:11:07.078Z,8.02
2022-11-20T03:16:53.875Z,8.02
2022-11-20T03:22:40.732Z,8.11
2022-11-20T03:28:27.344Z,8.14
2022-11-20T03:34:14.628Z,8.03
2022-11-20T03:40:01.373Z,8.02
2022-11-20T03:45:48.201Z,8.10
2022-11-20T03:51:36.898Z,8.17
2022-11-20T03:57:23.605Z,8.29
2022-11-20T04:03:10.180Z,8.21
2022-11-20T04:08:58.860Z,8.29
2022-11-20T04:14:45.553Z,8.31
2022-11-20T04:20:32.386Z,8.39
2022-11-20T04:26:19.744Z,8.34
2022-11-20T04:32:06.652Z,8.49
2022-11-20T04:37:53.327Z,8.55
2022-11-20T04:43:39.973Z,8.52
2022-11-20T04:49:26.656Z,8.50
2022-11-20T04:55:13.245Z,8.49
2022-11-20T05:01:04.226Z,8.48
2022-11-20T05:06:51.301Z,8.51
2022-11-20T05:12:37.910Z,8.68
2022-11-20T05:18:24.682Z,8.75
2022-11-20T05:24:11.360Z,8.79
2022-11-20T05:29:58.007Z,8.79
2022-11-20T05:35:44.882Z,8.81
2022-11-20T05:41:31.733Z,8.88
2022-11-20T05:47:18.491Z,8.95
2022-11-20T05:53:05.077Z,8.93
2022-11-20T05:58:51.739Z,8.98
2022-11-20T06:04:38.529Z,9.11
2022-11-20T06:10:25.312Z,9.09
2022-11-20T06:16:13.857Z,9.21
2022-11-20T06:22:00.527Z,9.26
2022-11-20T06:27:47.340Z,8.86
2022-11-20T06:33:34.385Z,8.82
2022-11-20T06:39:21.264Z,8.85
2022-11-20T06:45:08.873Z,8.96
2022-11-20T06:50:55.724Z,8.93
2022-11-20T06:56:42.354Z,8.94
2022-11-20T07:02:28.924Z,9.07
2022-11-20T07:08:15.745Z,9.11
2022-11-20T07:14:02.544Z,9.15
2022-11-20T07:19:49.254Z,9.19
2022-11-20T07:25:36.818Z,8.47
2022-11-20T07:31:23.770Z,8.55
2022-11-20T07:37:10.741Z,8.97
2022-11-20T07:42:57.501Z,9.17
2022-11-20T07:48:44.150Z,9.37
2022-11-20T07:54:30.765Z,9.41
2022-11-20T08:00:17.643Z,9.45
2022-11-20T08:06:04.992Z,9.60
2022-11-20T08:12:10.137Z,9.67
2022-11-20T08:18:28.958Z,9.63
2022-11-20T08:24:10.695Z,9.45
2022-11-20T08:29:57.480Z,9.67
2022-11-20T08:35:44.717Z,9.64
2022-11-20T08:41:34.286Z,9.60
2022-11-20T08:47:20.946Z,9.68
2022-11-20T08:53:07.842Z,9.58
2022-11-20T08:59:20.122Z,9.73
2022-11-20T09:05:03.321Z,9.68
2022-11-20T09:10:53.124Z,9.69
2022-11-20T09:16:39.841Z,9.78
2022-11-20T09:22:26.760Z,9.90
2022-11-20T09:28:13.833Z,10.02
2022-11-20T09:34:01.007Z,9.91
2022-11-20T09:39:48.048Z,10.08
2022-11-20T09:45:57.865Z,10.28
2022-11-20T09:51:56.560Z,10.27
2022-11-20T09:57:49.446Z,10.31
2022-11-20T10:04:05.857Z,10.36
2022-11-20T10:09:56.143Z,10.56
2022-11-20T10:16:12.955Z,10.62
2022-11-20T10:22:13.095Z,11.05
2022-11-20T10:28:08.737Z,11.33
2022-11-20T10:34:12.177Z,11.47
2022-11-20T10:40:04.718Z,11.47
2022-11-20T10:46:04.021Z,11.52
2022-11-20T10:51:57.140Z,11.47
2022-11-20T10:58:26.369Z,11.43
2022-11-20T11:04:30.263Z,11.33
2022-11-20T11:10:28.441Z,11.26
2022-11-20T11:16:23.218Z,11.25
2022-11-20T11:22:20.098Z,11.56
2022-11-20T11:28:22.564Z,11.61
2022-11-20T11:34:14.245Z,11.57
2022-11-20T11:40:24.033Z,11.73
2022-11-20T11:46:27.042Z,11.92
2022-11-20T11:52:25.874Z,11.98
2022-11-20T11:58:49.440Z,11.95
2022-11-20T12:04:49.313Z,11.88
2022-11-20T12:10:46.464Z,11.82
2022-11-20T12:16:42.083Z,11.80
2022-11-20T12:22:52.734Z,11.67
2022-11-20T12:28:45.908Z,11.61
2022-11-20T12:34:59.975Z,11.81
2022-11-20T12:40:52.249Z,12.00
2022-11-20T12:46:42.970Z,11.97
2022-11-20T12:52:43.424Z,11.74
2022-11-20T12:58:59.492Z,11.71
2022-11-20T13:04:52.994Z,11.67
2022-11-20T13:10:54.697Z,11.50
2022-11-20T13:17:11.136Z,11.51
2022-11-20T13:23:00.428Z,11.60
2022-11-20T13:28:49.529Z,11.53
2022-11-20T13:34:37.138Z,11.57
2022-11-20T13:40:24.276Z,11.50
2022-11-20T13:46:11.501Z,11.82
2022-11-20T13:52:27.734Z,11.47
2022-11-20T13:58:35.724Z,11.55
2022-11-20T14:04:36.656Z,11.53
2022-11-20T14:10:32.019Z,11.49
2022-11-20T14:16:23.004Z,11.40
2022-11-20T14:22:17.250Z,11.35
2022-11-20T14:28:05.442Z,11.51
2022-11-20T14:33:54.250Z,11.59
2022-11-20T14:39:53.240Z,11.67
2022-11-20T14:45:40.350Z,11.63
2022-11-20T14:51:42.323Z,11.41
2022-11-20T14:57:36.776Z,11.51
2022-11-20T15:03:26.611Z,11.75
2022-11-20T15:09:17.452Z,11.77
2022-11-20T15:15:06.256Z,11.46
2022-11-20T15:20:55.509Z,11.31
2022-11-20T15:26:42.786Z,11.22
2022-11-20T15:32:29.618Z,11.07
2022-11-20T15:38:19.208Z,11.35
2022-11-20T15:44:06.231Z,11.51
2022-11-20T15:49:53.196Z,11.17
2022-11-20T15:55:40.105Z,11.29
2022-11-20T16:01:27.194Z,11.38
2022-11-20T16:07:14.662Z,11.17
2022-11-20T16:13:20.436Z,10.95
2022-11-20T16:19:07.462Z,10.89
2022-11-20T16:24:54.138Z,10.88
2022-11-20T16:30:41.013Z,10.80
2022-11-20T16:36:29.432Z,10.75
2022-11-20T16:42:16.241Z,10.47
2022-11-20T16:48:03.129Z,10.52
2022-11-20T16:53:51.109Z,10.61
2022-11-20T16:59:38.036Z,10.34
2022-11-20T17:05:24.801Z,10.44
2022-11-20T17:11:14.028Z,10.36
2022-11-20T17:17:00.790Z,10.37
2022-11-20T17:22:47.637Z,10.35
2022-11-20T17:28:38.934Z,10.27
2022-11-20T17:34:31.069Z,10.05
2022-11-20T17:40:20.027Z,9.84
2022-11-20T17:47:18.155Z,9.71
2022-11-20T17:53:50.146Z,9.40
2022-11-20T17:59:43.762Z,9.41
2022-11-20T18:05:39.736Z,9.21
2022-11-20T18:18:00.859Z,9.14
2022-11-20T18:24:27.588Z,9.23
2022-11-20T18:30:36.305Z,9.07
2022-11-20T18:36:43.521Z,8.83
2022-11-20T18:43:18.031Z,8.94
2022-11-20T18:49:33.292Z,9.08
2022-11-20T19:12:02.697Z,8.62
2022-11-20T19:18:10.087Z,8.74
2022-11-20T19:23:59.771Z,8.71
2022-11-20T19:30:07.511Z,8.78
2022-11-20T19:35:55.180Z,8.30
2022-11-20T19:41:47.724Z,8.26
2022-11-20T19:48:05.959Z,8.37
2022-11-20T19:53:42.685Z,8.36
2022-11-20T20:06:43.907Z,8.10
2022-11-20T20:12:30.722Z,8.18
2022-11-20T20:18:17.558Z,8.19
2022-11-20T20:24:06.034Z,8.18
2022-11-20T20:29:53.058Z,8.17
2022-11-20T20:36:05.612Z,8.10
2022-11-20T20:41:58.593Z,7.92
2022-11-20T20:47:47.157Z,8.02
2022-11-20T20:53:37.182Z,8.04
2022-11-20T20:59:25.215Z,8.03
2022-11-20T21:05:15.247Z,7.94
2022-11-20T21:11:05.253Z,7.75
2022-11-20T21:16:55.275Z,7.53
2022-11-20T21:22:42.272Z,7.71
2022-11-20T21:28:31.379Z,7.46
2022-11-20T21:34:25.119Z,7.61
2022-11-20T21:40:12.196Z,7.66
2022-11-20T21:46:08.229Z,7.56
2022-11-20T21:51:54.990Z,7.45
2022-11-20T21:57:42.158Z,7.39
2022-11-20T22:03:29.043Z,7.41
2022-11-20T22:09:20.791Z,7.39
2022-11-20T22:15:09.844Z,7.24
2022-11-20T22:21:01.671Z,7.35
2022-11-20T22:26:54.976Z,7.50
2022-11-20T22:32:59.422Z,7.44
2022-11-20T22:39:01.158Z,7.38
2022-11-20T22:44:56.438Z,7.55
2022-11-20T22:51:02.201Z,7.61
2022-11-20T22:57:04.489Z,7.69
2022-11-20T23:02:59.804Z,7.52
2022-11-20T23:08:47.415Z,7.59
2022-11-20T23:14:36.768Z,7.64
2022-11-20T23:20:23.693Z,7.71
2022-11-20T23:26:15.744Z,7.69
2022-11-20T23:32:04.491Z,7.57
2022-11-20T23:37:52.317Z,7.79
2022-11-20T23:43:39.072Z,7.81
2022-11-20T23:49:26.572Z,7.80
2022-11-20T23:55:13.729Z,7.71
